createdAt,value
2018-04-11T00:00:11.992Z,24.23
2018-04-11T00:02:39.674Z,22.80
2018-04-11T00:05:07.350Z,22.50
2018-04-11T00:07:35.024Z,25.20
2018-04-11T00:10:02.696Z,23.07
2018-04-11T00:12:30.363Z,23.90
2018-04-11T00:14:58.030Z,25.20
2018-04-11T00:17:25.833Z,24.90
2018-04-11T00:19:53.902Z,25.10
2018-04-11T00:22:21.584Z,27.57
2018-04-11T00:24:49.255Z,25.07
2018-04-11T00:27:17.017Z,26.33
2018-04-11T00:29:44.695Z,26.93
2018-04-11T00:32:12.392Z,26.77
2018-04-11T00:34:40.053Z,26.23
2018-04-11T00:37:07.732Z,27.23
2018-04-11T00:39:35.394Z,26.80
2018-04-11T00:42:03.057Z,28.70
2018-04-11T00:44:30.747Z,27.60
2018-04-11T00:46:58.511Z,27.20
2018-04-11T00:49:26.158Z,28.10
2018-04-11T00:51:54.250Z,29.23
2018-04-11T00:54:21.923Z,28.17
2018-04-11T00:56:49.664Z,29.80
2018-04-11T00:59:17.745Z,28.80
2018-04-11T01:01:45.508Z,28.57
2018-04-11T01:04:13.169Z,29.07
2018-04-11T01:06:40.914Z,28.90
2018-04-11T01:09:08.951Z,28.90
2018-04-11T01:11:36.593Z,27.17
2018-04-11T01:14:04.269Z,30.20
2018-04-11T01:16:32.156Z,29.50
2018-04-11T01:18:59.806Z,28.23
2018-04-11T01:21:27.498Z,29.00
2018-04-11T01:23:55.576Z,30.60
2018-04-11T01:26:23.655Z,29.53
2018-04-11T01:28:51.725Z,27.80
2018-04-11T01:31:19.775Z,29.40
2018-04-11T01:33:47.491Z,27.63
2018-04-11T01:36:15.222Z,27.80
2018-04-11T01:38:43.276Z,28.33
2018-04-11T01:41:10.936Z,28.00
2018-04-11T01:43:38.584Z,28.10
2018-04-11T01:46:06.281Z,29.07
2018-04-11T01:48:34.331Z,29.83
2018-04-11T01:51:01.984Z,29.30
2018-04-11T01:53:29.641Z,30.50
2018-04-11T01:55:57.337Z,29.63
2018-04-11T01:58:25.384Z,29.70
2018-04-11T02:00:53.050Z,31.07
2018-04-11T02:03:20.750Z,30.03
2018-04-11T02:05:48.499Z,30.23
2018-04-11T02:08:16.568Z,32.03
2018-04-11T02:10:44.659Z,30.90
2018-04-11T02:13:12.405Z,32.60
2018-04-11T02:15:40.477Z,31.90
2018-04-11T02:18:08.558Z,31.90
2018-04-11T02:20:36.254Z,31.90
2018-04-11T02:23:03.918Z,30.70
2018-04-11T02:25:31.602Z,30.43
2018-04-11T02:27:59.262Z,31.23
2018-04-11T02:30:26.942Z,30.70
2018-04-11T02:32:54.594Z,31.00
2018-04-11T02:35:24.414Z,31.83
2018-04-11T02:37:52.071Z,32.40
2018-04-11T02:40:19.730Z,30.40
2018-04-11T02:42:47.495Z,31.83
2018-04-11T02:45:15.154Z,32.53
2018-04-11T02:47:42.859Z,32.03
2018-04-11T02:50:10.512Z,30.53
2018-04-11T02:52:38.199Z,32.00
2018-04-11T02:55:05.871Z,32.77
2018-04-11T02:57:33.729Z,33.73
2018-04-11T03:00:01.390Z,34.57
2018-04-11T03:02:29.507Z,34.77
2018-04-11T03:04:57.174Z,35.40
2018-04-11T03:07:24.829Z,36.60
2018-04-11T03:09:52.535Z,37.70
2018-04-11T03:12:20.196Z,36.90
2018-04-11T03:14:47.923Z,35.80
2018-04-11T03:17:15.621Z,35.83
2018-04-11T03:19:43.275Z,36.77
2018-04-11T03:22:10.949Z,37.33
2018-04-11T03:24:38.627Z,38.30
2018-04-11T03:27:06.283Z,35.60
2018-04-11T03:29:34.067Z,37.67
2018-04-11T03:32:01.734Z,35.53
2018-04-11T03:34:29.382Z,36.70
2018-04-11T03:36:57.118Z,36.23
2018-04-11T03:39:25.178Z,36.17
2018-04-11T03:41:53.260Z,35.43
2018-04-11T03:44:21.322Z,37.17
2018-04-11T03:46:49.010Z,37.03
2018-04-11T03:49:16.662Z,35.70
2018-04-11T03:51:44.416Z,34.87
2018-04-11T03:54:12.490Z,36.00
2018-04-11T03:56:40.559Z,36.00
2018-04-11T03:59:08.334Z,35.03
2018-04-11T04:01:36.115Z,33.17
2018-04-11T04:04:04.153Z,34.23
2018-04-11T04:06:32.226Z,36.17
2018-04-11T04:09:00.273Z,34.40
2018-04-11T04:11:27.970Z,36.27
2018-04-11T04:14:07.578Z,34.27
2018-04-11T04:16:47.099Z,35.30
2018-04-11T04:19:26.575Z,34.67
2018-04-11T04:21:54.664Z,33.70
2018-04-11T04:24:22.790Z,34.23
2018-04-11T04:26:50.481Z,38.47
2018-04-11T04:29:18.525Z,36.70
2018-04-11T04:31:46.205Z,36.23
2018-04-11T04:34:13.863Z,36.50
2018-04-11T04:36:41.533Z,36.63
2018-04-11T04:39:09.195Z,36.40
2018-04-11T04:41:36.877Z,37.83
2018-04-11T04:44:04.948Z,38.90
2018-04-11T04:46:32.617Z,37.73
2018-04-11T04:49:00.654Z,35.50
2018-04-11T04:51:28.341Z,36.70
2018-04-11T04:53:56.388Z,36.30
2018-04-11T04:56:24.048Z,36.70
2018-04-11T04:58:51.710Z,37.50
2018-04-11T05:01:19.377Z,34.57
2018-04-11T05:03:47.025Z,35.67
2018-04-11T05:06:14.683Z,36.33
2018-04-11T05:08:42.361Z,35.50
2018-04-11T05:11:10.022Z,35.00
2018-04-11T05:13:37.732Z,35.10
2018-04-11T05:16:05.377Z,33.07
2018-04-11T05:18:33.436Z,33.70
2018-04-11T05:21:01.104Z,32.80
2018-04-11T05:23:29.316Z,33.63
2018-04-11T05:25:56.998Z,35.60
2018-04-11T05:28:24.663Z,32.77
2018-04-11T05:30:52.366Z,33.13
2018-04-11T05:33:20.470Z,31.13
2018-04-11T05:35:48.164Z,32.27
2018-04-11T05:38:15.847Z,33.60
2018-04-11T05:40:43.512Z,34.20
2018-04-11T05:43:11.173Z,35.67
2018-04-11T05:45:38.838Z,35.90
2018-04-11T05:48:06.878Z,38.43
2018-04-11T05:50:34.561Z,41.90
2018-04-11T05:53:02.243Z,41.53
2018-04-11T05:55:30.325Z,38.97
2018-04-11T05:57:57.973Z,38.67
2018-04-11T06:00:25.738Z,35.50
2018-04-11T06:02:53.773Z,36.03
2018-04-11T06:05:21.427Z,35.60
2018-04-11T06:07:49.101Z,33.77
2018-04-11T06:10:16.798Z,32.43
2018-04-11T06:12:44.868Z,30.57
2018-04-11T06:15:12.941Z,28.13
2018-04-11T06:17:41.040Z,29.90
2018-04-11T06:20:08.815Z,27.10
2018-04-11T06:22:36.509Z,26.20
2018-04-11T06:25:04.165Z,27.80
2018-04-11T06:27:31.890Z,26.70
2018-04-11T06:29:59.634Z,26.43
2018-04-11T06:32:27.705Z,24.70
2018-04-11T06:34:55.390Z,26.03
2018-04-11T06:37:23.153Z,25.17
2018-04-11T06:39:50.825Z,25.17
2018-04-11T06:42:18.482Z,23.60
2018-04-11T06:44:46.679Z,25.20
2018-04-11T06:47:14.429Z,23.17
2018-04-11T06:49:42.117Z,23.43
2018-04-11T06:52:09.782Z,24.10
2018-04-11T06:54:37.457Z,23.00
2018-04-11T06:57:05.140Z,22.90
2018-04-11T06:59:33.195Z,21.73
2018-04-11T07:02:00.863Z,22.17
2018-04-11T07:04:28.553Z,23.03
2018-04-11T07:06:56.304Z,20.70
2018-04-11T07:09:24.393Z,21.97
2018-04-11T07:11:52.131Z,20.50
2018-04-11T07:14:20.179Z,19.80
2018-04-11T07:16:47.828Z,20.67
2018-04-11T07:19:15.493Z,19.83
2018-04-11T07:21:43.219Z,20.20
2018-04-11T07:24:10.875Z,20.43
2018-04-11T07:26:38.532Z,18.93
2018-04-11T07:29:06.595Z,20.13
2018-04-11T07:31:34.651Z,19.20
2018-04-11T07:34:02.813Z,19.23
2018-04-11T07:36:30.476Z,20.80
2018-04-11T07:38:58.129Z,19.33
2018-04-11T07:41:25.815Z,19.27
2018-04-11T07:43:53.472Z,19.93
2018-04-11T07:46:21.132Z,18.83
2018-04-11T07:48:48.819Z,18.83
2018-04-11T07:51:16.877Z,18.27
2018-04-11T07:53:44.536Z,17.97
2018-04-11T07:56:12.622Z,16.87
2018-04-11T07:58:40.680Z,16.07
2018-04-11T08:01:08.751Z,16.70
2018-04-11T08:03:36.404Z,17.57
2018-04-11T08:06:04.108Z,18.87
2018-04-11T08:08:31.864Z,15.80
2018-04-11T08:11:00.260Z,15.80
2018-04-11T08:13:27.949Z,19.03
2018-04-11T08:15:55.661Z,18.30
2018-04-11T08:18:23.322Z,16.40
2018-04-11T08:20:51.367Z,17.10
2018-04-11T08:23:19.058Z,15.80
2018-04-11T08:25:47.097Z,15.90
2018-04-11T08:28:14.762Z,16.57
2018-04-11T08:30:42.424Z,16.97
2018-04-11T08:33:10.085Z,17.20
2018-04-11T08:35:37.741Z,16.60
2018-04-11T08:38:05.409Z,16.03
2018-04-11T08:40:33.064Z,15.73
2018-04-11T08:43:00.783Z,15.43
2018-04-11T08:45:28.458Z,17.03
2018-04-11T08:47:56.135Z,16.20
2018-04-11T08:50:23.857Z,16.63
2018-04-11T08:52:51.522Z,16.90
2018-04-11T08:55:19.212Z,16.47
2018-04-11T08:57:46.858Z,15.53
2018-04-11T09:00:14.506Z,17.87
2018-04-11T09:02:42.167Z,17.57
2018-04-11T09:05:09.828Z,18.13
2018-04-11T09:07:37.492Z,18.80
2018-04-11T09:10:05.157Z,18.40
2018-04-11T09:12:32.827Z,15.77
2018-04-11T09:15:00.491Z,16.40
2018-04-11T09:17:28.168Z,15.63
2018-04-11T09:19:55.897Z,15.07
2018-04-11T09:22:23.944Z,15.93
2018-04-11T09:24:51.656Z,15.37
2018-04-11T09:27:19.307Z,16.03
2018-04-11T09:29:47.024Z,13.87
2018-04-11T09:32:14.718Z,15.47
2018-04-11T09:34:42.766Z,13.07
2018-04-11T09:37:10.418Z,12.80
2018-04-11T09:39:38.073Z,13.17
2018-04-11T09:42:05.733Z,12.53
2018-04-11T09:44:33.446Z,14.90
2018-04-11T09:47:01.140Z,14.50
2018-04-11T09:49:28.833Z,14.40
2018-04-11T09:51:56.495Z,15.00
2018-04-11T09:54:24.177Z,15.60
2018-04-11T09:56:52.271Z,15.20
2018-04-11T09:59:19.922Z,16.07
2018-04-11T10:01:50.817Z,14.93
2018-04-11T10:04:18.523Z,14.83
2018-04-11T10:06:46.595Z,15.17
2018-04-11T10:09:14.669Z,15.50
2018-04-11T10:11:42.725Z,15.87
2018-04-11T10:14:10.602Z,14.53
2018-04-11T10:16:39.066Z,15.50
2018-04-11T10:19:06.769Z,16.00
2018-04-11T10:21:34.378Z,15.10
2018-04-11T10:24:02.046Z,16.77
2018-04-11T10:26:29.727Z,18.43
2018-04-11T10:28:57.776Z,19.40
2018-04-11T10:31:25.434Z,19.20
2018-04-11T10:33:53.118Z,18.90
2018-04-11T10:36:21.181Z,19.80
2018-04-11T10:38:48.882Z,20.03
2018-04-11T10:41:16.546Z,20.27
2018-04-11T10:43:44.202Z,19.03
2018-04-11T10:46:12.517Z,19.33
2018-04-11T10:48:40.176Z,20.70
2018-04-11T10:51:07.816Z,19.90
2018-04-11T10:53:35.458Z,20.27
2018-04-11T10:56:03.201Z,21.20
2018-04-11T10:58:31.913Z,19.07
2018-04-11T11:00:59.935Z,20.70
2018-04-11T11:03:27.645Z,19.93
2018-04-11T11:05:55.408Z,22.20
2018-04-11T11:08:23.063Z,21.50
2018-04-11T11:10:51.204Z,22.33
2018-04-11T11:13:18.865Z,21.73
2018-04-11T11:15:46.564Z,23.00
2018-04-11T11:18:14.617Z,23.73
2018-04-11T11:20:54.695Z,24.60
2018-04-11T11:23:22.433Z,24.67
2018-04-11T11:25:50.496Z,25.83
2018-04-11T11:28:18.172Z,27.57
2018-04-11T11:30:45.853Z,28.40
2018-04-11T11:33:13.622Z,27.97
2018-04-11T11:35:42.308Z,26.50
2018-04-11T11:38:10.462Z,27.60
2018-04-11T11:40:38.539Z,28.00
2018-04-11T11:43:06.573Z,30.13
2018-04-11T11:45:34.243Z,29.67
2018-04-11T11:48:02.307Z,30.10
2018-04-11T11:50:29.967Z,31.33
2018-04-11T11:52:57.765Z,30.67
2018-04-11T11:55:25.429Z,30.23
2018-04-11T11:57:53.465Z,30.23
2018-04-11T12:00:21.129Z,30.13
2018-04-11T12:02:48.807Z,31.10
2018-04-11T12:05:16.478Z,33.60
2018-04-11T12:07:44.527Z,33.27
2018-04-11T12:10:12.251Z,33.43
2018-04-11T12:12:39.899Z,33.57
2018-04-11T12:15:07.593Z,34.27
2018-04-11T12:17:35.252Z,34.13
2018-04-11T12:20:02.911Z,36.93
2018-04-11T12:22:30.572Z,35.50
2018-04-11T12:24:58.302Z,33.80
2018-04-11T12:27:25.997Z,33.47
2018-04-11T12:29:53.691Z,34.40
2018-04-11T12:32:21.351Z,35.00
2018-04-11T12:34:49.003Z,33.63
2018-04-11T12:37:16.693Z,34.60
2018-04-11T12:39:44.330Z,34.37
2018-04-11T12:42:11.994Z,34.57
2018-04-11T12:44:39.632Z,33.57
2018-04-11T12:47:07.458Z,37.70
2018-04-11T12:49:35.519Z,35.07
2018-04-11T12:52:03.216Z,35.60
2018-04-11T12:54:30.891Z,35.70
2018-04-11T12:56:58.592Z,33.80
2018-04-11T12:59:26.313Z,36.40
2018-04-11T13:01:54.037Z,38.53
2018-04-11T13:04:22.135Z,38.43
2018-04-11T13:06:49.790Z,38.60
2018-04-11T13:09:17.435Z,37.87
2018-04-11T13:11:45.510Z,37.97
2018-04-11T13:14:13.721Z,38.60
2018-04-11T13:16:41.377Z,39.07
2018-04-11T13:19:09.021Z,39.63
2018-04-11T13:21:36.683Z,38.60
2018-04-11T13:24:04.744Z,38.00
2018-04-11T13:26:32.951Z,37.13
2018-04-11T13:29:00.822Z,38.20
2018-04-11T13:31:28.481Z,38.37
2018-04-11T13:33:56.245Z,39.97
2018-04-11T13:36:24.085Z,40.20
2018-04-11T13:38:52.117Z,37.13
2018-04-11T13:41:19.774Z,38.17
2018-04-11T13:43:47.412Z,38.60
2018-04-11T13:46:15.074Z,38.70
2018-04-11T13:48:42.797Z,38.13
2018-04-11T13:51:11.446Z,38.67
2018-04-11T13:53:39.139Z,37.60
2018-04-11T13:56:07.209Z,38.03
2018-04-11T13:58:34.871Z,39.27
2018-04-11T14:01:02.531Z,39.53
2018-04-11T14:03:31.184Z,36.60
2018-04-11T14:05:58.846Z,38.07
2018-04-11T14:08:26.513Z,37.73
2018-04-11T14:10:54.175Z,39.60
2018-04-11T14:13:21.836Z,38.53
2018-04-11T14:15:49.520Z,40.40
2018-04-11T14:18:17.156Z,41.47
2018-04-11T14:20:44.813Z,41.40
2018-04-11T14:23:12.454Z,40.43
2018-04-11T14:25:40.113Z,40.97
2018-04-11T14:28:07.808Z,40.10
2018-04-11T14:30:35.473Z,40.80
2018-04-11T14:33:03.131Z,40.57
2018-04-11T14:35:30.839Z,38.40
2018-04-11T14:37:58.917Z,39.37
2018-04-11T14:40:26.978Z,38.70
2018-04-11T14:42:55.029Z,40.93
2018-04-11T14:45:22.745Z,40.17
2018-04-11T14:47:50.384Z,39.67
2018-04-11T14:50:18.052Z,37.93
2018-04-11T14:52:45.699Z,40.03
2018-04-11T14:55:13.766Z,36.40
2018-04-11T14:57:41.837Z,38.47
2018-04-11T15:00:09.974Z,37.93
2018-04-11T15:02:37.648Z,34.90
2018-04-11T15:05:05.301Z,34.57
2018-04-11T15:07:33.017Z,35.53
2018-04-11T15:10:00.769Z,33.73
2018-04-11T15:12:28.821Z,33.77
2018-04-11T15:14:56.454Z,32.23
2018-04-11T15:17:24.109Z,32.43
2018-04-11T15:19:51.771Z,36.00
2018-04-11T15:22:19.484Z,34.23
2018-04-11T15:24:47.529Z,34.20
2018-04-11T15:27:15.236Z,35.27
2018-04-11T15:29:42.985Z,34.37
2018-04-11T15:32:11.084Z,36.00
2018-04-11T15:34:38.746Z,33.70
2018-04-11T15:39:40.977Z,34.60
2018-04-11T15:42:08.669Z,35.77
2018-04-11T15:44:36.458Z,35.27
2018-04-11T15:47:04.757Z,34.97
2018-04-11T15:49:32.577Z,33.80
2018-04-11T15:52:00.236Z,34.80
2018-04-11T15:54:28.374Z,34.87
2018-04-11T15:56:56.045Z,33.10
2018-04-11T15:59:23.737Z,38.40
2018-04-11T16:01:51.806Z,37.30
2018-04-11T16:04:19.470Z,35.77
2018-04-11T16:06:47.541Z,37.80
2018-04-11T16:09:15.203Z,38.13
2018-04-11T16:11:43.293Z,36.80
2018-04-11T16:14:10.954Z,39.03
2018-04-11T16:16:38.623Z,39.30
2018-04-11T16:19:06.286Z,36.40
2018-04-11T16:21:34.022Z,37.63
2018-04-11T16:24:01.682Z,36.10
2018-04-11T16:26:29.745Z,36.53
2018-04-11T16:28:57.605Z,35.70
2018-04-11T16:31:25.282Z,37.37
2018-04-11T16:33:53.384Z,34.60
2018-04-11T16:36:21.137Z,36.37
2018-04-11T16:38:48.802Z,36.17
2018-04-11T16:41:16.460Z,34.13
2018-04-11T16:43:44.493Z,34.53
2018-04-11T16:46:12.159Z,36.53
2018-04-11T16:48:39.803Z,36.17
2018-04-11T16:51:07.474Z,34.20
2018-04-11T16:53:35.143Z,32.70
2018-04-11T16:56:02.806Z,35.00
2018-04-11T16:58:30.465Z,37.50
2018-04-11T17:00:58.173Z,33.63
2018-04-11T17:03:25.833Z,35.93
2018-04-11T17:05:53.578Z,34.40
2018-04-11T17:08:21.650Z,34.77
2018-04-11T17:10:49.715Z,35.93
2018-04-11T17:13:17.781Z,34.87
2018-04-11T17:15:45.442Z,33.87
2018-04-11T17:18:13.131Z,36.33
2018-04-11T17:20:52.593Z,34.40
2018-04-11T17:23:32.117Z,34.90
2018-04-11T17:26:11.567Z,35.50
2018-04-11T17:28:51.081Z,35.47
2018-04-11T17:31:22.608Z,34.43
2018-04-11T17:33:50.252Z,33.67
2018-04-11T17:36:17.936Z,33.67
2018-04-11T17:38:45.647Z,35.13
2018-04-11T17:41:13.421Z,35.67
2018-04-11T17:43:41.079Z,34.60
2018-04-11T17:46:08.764Z,37.67
2018-04-11T17:48:36.440Z,36.83
2018-04-11T17:51:04.256Z,36.50
2018-04-11T17:53:32.013Z,37.83
2018-04-11T17:55:59.798Z,38.43
2018-04-11T17:58:27.634Z,39.87
2018-04-11T18:00:55.714Z,38.87
2018-04-11T18:03:23.658Z,38.90
2018-04-11T18:05:51.345Z,40.30
2018-04-11T18:08:19.082Z,39.93
2018-04-11T18:10:46.784Z,39.40
2018-04-11T18:13:14.464Z,43.60
2018-04-11T18:15:42.143Z,41.27
2018-04-11T18:18:09.822Z,42.53
2018-04-11T18:20:37.502Z,43.60
2018-04-11T18:23:05.591Z,38.80
2018-04-11T18:25:33.656Z,38.57
2018-04-11T18:28:01.353Z,43.97
2018-04-11T18:30:29.020Z,40.63
2018-04-11T18:32:56.682Z,44.17
2018-04-11T18:35:24.351Z,42.20
2018-04-11T18:37:52.028Z,41.17
2018-04-11T18:40:19.722Z,40.87
2018-04-11T18:42:47.788Z,40.83
2018-04-11T18:45:15.444Z,41.30
2018-04-11T18:47:43.099Z,43.40
2018-04-11T18:50:10.946Z,42.00
2018-04-11T18:52:38.612Z,41.40
2018-04-11T18:55:06.578Z,43.23
2018-04-11T18:57:34.255Z,42.50
2018-04-11T19:00:02.011Z,41.83
2018-04-11T19:02:29.714Z,42.10
2018-04-11T19:04:57.933Z,43.40
2018-04-11T19:07:25.633Z,42.80
2018-04-11T19:09:53.462Z,42.83
2018-04-11T19:12:21.143Z,41.97
2018-04-11T19:14:48.906Z,43.33
2018-04-11T19:17:16.634Z,42.87
2018-04-11T19:19:44.438Z,42.10
2018-04-11T19:22:12.245Z,44.53
2018-04-11T19:24:39.891Z,45.10
2018-04-11T19:27:08.070Z,43.10
2018-04-11T19:29:36.151Z,42.37
2018-04-11T19:32:06.918Z,41.20
2018-04-11T19:34:34.684Z,41.50
2018-04-11T19:37:04.382Z,42.07
2018-04-11T19:39:32.046Z,43.30
2018-04-11T19:41:59.746Z,42.50
2018-04-11T19:44:27.460Z,41.53
2018-04-11T19:46:55.552Z,41.70
2018-04-11T19:49:23.322Z,41.70
2018-04-11T19:51:50.979Z,42.50
2018-04-11T19:54:18.675Z,42.70
2018-04-11T19:56:46.407Z,42.80
2018-04-11T19:59:14.075Z,43.47
2018-04-11T20:01:41.794Z,42.40
2018-04-11T20:04:09.900Z,43.13
2018-04-11T20:06:37.632Z,44.83
2018-04-11T20:09:05.708Z,43.27
2018-04-11T20:11:33.770Z,42.60
2018-04-11T20:14:01.808Z,42.50
2018-04-11T20:16:29.461Z,42.13
2018-04-11T20:18:57.135Z,41.47
2018-04-11T20:21:24.813Z,44.50
2018-04-11T20:23:52.465Z,43.97
2018-04-11T20:26:20.128Z,42.23
2018-04-11T20:28:47.789Z,43.77
2018-04-11T20:31:15.446Z,42.97
2018-04-11T20:33:43.107Z,43.80
2018-04-11T20:36:10.754Z,43.03
2018-04-11T20:38:38.395Z,44.07
2018-04-11T20:41:06.076Z,43.00
2018-04-11T20:43:33.749Z,43.93
2018-04-11T20:46:01.437Z,43.50
2018-04-11T20:48:29.134Z,43.43
2018-04-11T20:50:56.802Z,45.90
2018-04-11T20:53:24.473Z,43.23
2018-04-11T20:55:52.132Z,43.20
2018-04-11T20:58:19.807Z,43.50
2018-04-11T21:00:47.479Z,42.10
2018-04-11T21:03:15.135Z,43.17
2018-04-11T21:05:42.823Z,44.83
2018-04-11T21:08:10.469Z,44.73
2018-04-11T21:10:38.124Z,43.10
2018-04-11T21:13:05.790Z,43.10
2018-04-11T21:15:33.530Z,43.03
2018-04-11T21:18:01.191Z,43.43
2018-04-11T21:20:28.981Z,44.60
2018-04-11T21:22:56.645Z,41.47
2018-04-11T21:25:24.336Z,45.40
2018-04-11T21:27:52.039Z,43.20
2018-04-11T21:30:19.728Z,42.67
2018-04-11T21:32:47.385Z,40.33
2018-04-11T21:35:15.211Z,42.70
2018-04-11T21:37:42.873Z,40.70
2018-04-11T21:40:10.981Z,41.40
2018-04-11T21:42:38.658Z,43.30
2018-04-11T21:45:06.365Z,41.53
2018-04-11T21:47:34.398Z,43.00
2018-04-11T21:50:02.041Z,43.13
2018-04-11T21:52:29.715Z,41.70
2018-04-11T21:54:57.401Z,41.83
2018-04-11T21:57:25.470Z,41.73
2018-04-11T21:59:53.325Z,42.23
2018-04-11T22:02:20.969Z,40.30
2018-04-11T22:04:48.638Z,40.10
2018-04-11T22:07:16.324Z,39.43
2018-04-11T22:09:43.977Z,39.43
2018-04-11T22:12:11.676Z,39.50
2018-04-11T22:14:39.719Z,40.80
2018-04-11T22:17:07.374Z,39.10
2018-04-11T22:19:35.044Z,39.20
2018-04-11T22:22:02.742Z,40.53
2018-04-11T22:24:30.766Z,38.37
2018-04-11T22:26:58.869Z,39.00
2018-04-11T22:29:26.922Z,37.70
2018-04-11T22:31:54.744Z,40.07
2018-04-11T22:34:22.446Z,37.73
2018-04-11T22:36:50.143Z,38.40
2018-04-11T22:39:17.789Z,38.50
2018-04-11T22:41:45.869Z,37.20
2018-04-11T22:44:13.910Z,39.77
2018-04-11T22:46:41.573Z,38.23
2018-04-11T22:49:09.230Z,38.77
2018-04-11T22:51:36.892Z,36.77
2018-04-11T22:54:04.537Z,36.43
2018-04-11T22:56:32.484Z,37.00
2018-04-11T22:59:00.182Z,37.20
2018-04-11T23:01:27.842Z,36.30
2018-04-11T23:03:55.515Z,37.03
2018-04-11T23:06:23.174Z,35.97
2018-04-11T23:08:50.814Z,35.93
2018-04-11T23:11:18.505Z,37.17
2018-04-11T23:13:46.181Z,36.30
2018-04-11T23:16:13.873Z,37.10
2018-04-11T23:18:41.547Z,35.87
2018-04-11T23:21:09.224Z,34.67
2018-04-11T23:23:36.898Z,35.83
2018-04-11T23:26:04.573Z,37.50
2018-04-11T23:28:32.286Z,39.00
2018-04-11T23:30:59.945Z,36.83
2018-04-11T23:33:27.614Z,33.87
2018-04-11T23:35:55.298Z,34.97
2018-04-11T23:38:23.409Z,36.47
2018-04-11T23:40:51.109Z,35.03
2018-04-11T23:43:18.853Z,37.07
2018-04-11T23:45:46.926Z,36.53
2018-04-11T23:48:14.965Z,36.47
2018-04-11T23:50:42.611Z,35.67
2018-04-11T23:53:10.290Z,35.03
2018-04-11T23:55:38.182Z,37.13
2018-04-11T23:58:06.253Z,36.67
